sensor_id;sensor_type;location;lat;lon;timestamp;P1;durP1;ratioP1;P2;durP2;ratioP2
29960;SDS011;16816;44.444;26.152;2022-11-18T00:02:22;126.67;;;113.13;;
29960;SDS011;16816;44.444;26.152;2022-11-18T00:07:26;133.60;;;119.45;;
29960;SDS011;16816;44.444;26.152;2022-11-18T00:12:31;140.73;;;126.38;;
29960;SDS011;16816;44.444;26.152;2022-11-18T00:17:52;153.93;;;138.70;;
29960;SDS011;16816;44.444;26.152;2022-11-18T00:22:56;143.15;;;128.50;;
29960;SDS011;16816;44.444;26.152;2022-11-18T00:28:02;145.90;;;131.10;;
29960;SDS011;16816;44.444;26.152;2022-11-18T00:33:06;152.32;;;137.35;;
29960;SDS011;16816;44.444;26.152;2022-11-18T00:38:10;151.52;;;136.32;;
29960;SDS011;16816;44.444;26.152;2022-11-18T00:43:15;155.70;;;140.35;;
29960;SDS011;16816;44.444;26.152;2022-11-18T00:48:19;164.90;;;149.07;;
29960;SDS011;16816;44.444;26.152;2022-11-18T00:53:24;135.30;;;121.05;;
29960;SDS011;16816;44.444;26.152;2022-11-18T00:58:30;139.63;;;125.13;;
29960;SDS011;16816;44.444;26.152;2022-11-18T01:03:34;140.50;;;126.10;;
29960;SDS011;16816;44.444;26.152;2022-11-18T01:08:38;146.95;;;132.10;;
29960;SDS011;16816;44.444;26.152;2022-11-18T01:13:43;142.45;;;127.78;;
29960;SDS011;16816;44.444;26.152;2022-11-18T01:18:47;128.53;;;114.53;;
29960;SDS011;16816;44.444;26.152;2022-11-18T01:23:50;155.25;;;139.85;;
29960;SDS011;16816;44.444;26.152;2022-11-18T01:28:56;157.00;;;141.52;;
29960;SDS011;16816;44.444;26.152;2022-11-18T01:34:00;161.77;;;146.07;;
29960;SDS011;16816;44.444;26.152;2022-11-18T01:39:04;158.55;;;143.00;;
29960;SDS011;16816;44.444;26.152;2022-11-18T01:49:46;171.13;;;154.73;;
29960;SDS011;16816;44.444;26.152;2022-11-18T01:54:52;184.10;;;167.07;;
29960;SDS011;16816;44.444;26.152;2022-11-18T01:59:59;183.40;;;166.15;;
29960;SDS011;16816;44.444;26.152;2022-11-18T02:05:08;171.57;;;155.07;;
29960;SDS011;16816;44.444;26.152;2022-11-18T02:10:17;158.65;;;142.50;;
29960;SDS011;16816;44.444;26.152;2022-11-18T02:15:24;156.43;;;140.43;;
29960;SDS011;16816;44.444;26.152;2022-11-18T02:20:34;175.55;;;158.70;;
29960;SDS011;16816;44.444;26.152;2022-11-18T02:25:41;162.45;;;146.20;;
29960;SDS011;16816;44.444;26.152;2022-11-18T02:30:55;153.52;;;137.57;;
29960;SDS011;16816;44.444;26.152;2022-11-18T02:36:03;143.13;;;127.70;;
29960;SDS011;16816;44.444;26.152;2022-11-18T02:41:12;143.38;;;127.80;;
29960;SDS011;16816;44.444;26.152;2022-11-18T02:46:23;139.80;;;124.50;;
29960;SDS011;16816;44.444;26.152;2022-11-18T02:51:28;146.95;;;131.13;;
29960;SDS011;16816;44.444;26.152;2022-11-18T02:56:34;148.10;;;132.20;;
29960;SDS011;16816;44.444;26.152;2022-11-18T03:01:40;141.20;;;125.55;;
29960;SDS011;16816;44.444;26.152;2022-11-18T03:06:44;138.57;;;122.90;;
29960;SDS011;16816;44.444;26.152;2022-11-18T03:11:53;147.50;;;131.57;;
29960;SDS011;16816;44.444;26.152;2022-11-18T03:17:05;144.40;;;128.57;;
29960;SDS011;16816;44.444;26.152;2022-11-18T03:22:12;140.70;;;124.25;;
29960;SDS011;16816;44.444;26.152;2022-11-18T03:27:21;146.20;;;130.13;;
29960;SDS011;16816;44.444;26.152;2022-11-18T03:32:30;139.10;;;119.60;;
29960;SDS011;16816;44.444;26.152;2022-11-18T03:37:35;136.40;;;118.00;;
29960;SDS011;16816;44.444;26.152;2022-11-18T03:42:42;132.23;;;108.88;;
29960;SDS011;16816;44.444;26.152;2022-11-18T03:47:49;133.95;;;116.55;;
29960;SDS011;16816;44.444;26.152;2022-11-18T03:52:56;131.00;;;107.80;;
29960;SDS011;16816;44.444;26.152;2022-11-18T03:58:02;131.43;;;112.10;;
29960;SDS011;16816;44.444;26.152;2022-11-18T04:03:09;127.20;;;105.03;;
29960;SDS011;16816;44.444;26.152;2022-11-18T04:08:14;126.50;;;104.80;;
29960;SDS011;16816;44.444;26.152;2022-11-18T04:13:25;124.85;;;100.63;;
29960;SDS011;16816;44.444;26.152;2022-11-18T04:18:33;124.35;;;98.72;;
29960;SDS011;16816;44.444;26.152;2022-11-18T04:23:37;121.77;;;98.53;;
29960;SDS011;16816;44.444;26.152;2022-11-18T04:28:41;122.65;;;96.90;;
29960;SDS011;16816;44.444;26.152;2022-11-18T04:33:46;117.85;;;85.75;;
29960;SDS011;16816;44.444;26.152;2022-11-18T04:38:50;115.77;;;80.73;;
29960;SDS011;16816;44.444;26.152;2022-11-18T04:43:54;114.95;;;75.05;;
29960;SDS011;16816;44.444;26.152;2022-11-18T04:48:59;108.50;;;65.00;;
29960;SDS011;16816;44.444;26.152;2022-11-18T04:54:03;104.90;;;57.20;;
29960;SDS011;16816;44.444;26.152;2022-11-18T04:59:07;104.40;;;54.67;;
29960;SDS011;16816;44.444;26.152;2022-11-18T05:04:13;102.40;;;48.10;;
29960;SDS011;16816;44.444;26.152;2022-11-18T05:09:17;99.35;;;44.42;;
29960;SDS011;16816;44.444;26.152;2022-11-18T05:14:23;96.00;;;39.60;;
29960;SDS011;16816;44.444;26.152;2022-11-18T05:19:29;95.30;;;39.17;;
29960;SDS011;16816;44.444;26.152;2022-11-18T05:24:33;98.97;;;41.40;;
29960;SDS011;16816;44.444;26.152;2022-11-18T05:29:36;93.13;;;34.17;;
29960;SDS011;16816;44.444;26.152;2022-11-18T05:34:42;92.40;;;33.22;;
29960;SDS011;16816;44.444;26.152;2022-11-18T05:39:46;94.28;;;31.35;;
29960;SDS011;16816;44.444;26.152;2022-11-18T05:44:49;90.53;;;29.40;;
29960;SDS011;16816;44.444;26.152;2022-11-18T05:50:00;92.38;;;28.40;;
29960;SDS011;16816;44.444;26.152;2022-11-18T05:55:05;95.30;;;27.37;;
29960;SDS011;16816;44.444;26.152;2022-11-18T06:00:10;88.28;;;22.23;;
29960;SDS011;16816;44.444;26.152;2022-11-18T06:05:16;74.00;;;18.87;;
29960;SDS011;16816;44.444;26.152;2022-11-18T06:10:21;79.25;;;19.35;;
29960;SDS011;16816;44.444;26.152;2022-11-18T06:15:29;78.82;;;18.50;;
29960;SDS011;16816;44.444;26.152;2022-11-18T06:20:35;73.93;;;16.38;;
29960;SDS011;16816;44.444;26.152;2022-11-18T06:25:40;70.35;;;17.38;;
29960;SDS011;16816;44.444;26.152;2022-11-18T06:30:45;84.05;;;16.27;;
29960;SDS011;16816;44.444;26.152;2022-11-18T06:35:50;9.43;;;8.82;;
29960;SDS011;16816;44.444;26.152;2022-11-18T06:40:57;8.70;;;7.93;;
29960;SDS011;16816;44.444;26.152;2022-11-18T06:46:02;8.63;;;8.00;;
29960;SDS011;16816;44.444;26.152;2022-11-18T06:51:25;9.35;;;8.65;;
29960;SDS011;16816;44.444;26.152;2022-11-18T06:56:29;9.45;;;8.65;;
29960;SDS011;16816;44.444;26.152;2022-11-18T07:01:34;9.27;;;8.68;;
29960;SDS011;16816;44.444;26.152;2022-11-18T07:06:40;6.57;;;5.90;;
29960;SDS011;16816;44.444;26.152;2022-11-18T07:11:43;4.73;;;4.43;;
29960;SDS011;16816;44.444;26.152;2022-11-18T07:16:47;5.43;;;4.93;;
29960;SDS011;16816;44.444;26.152;2022-11-18T07:21:53;4.75;;;4.28;;
29960;SDS011;16816;44.444;26.152;2022-11-18T07:26:58;20.27;;;6.65;;
29960;SDS011;16816;44.444;26.152;2022-11-18T07:32:03;5.82;;;5.07;;
29960;SDS011;16816;44.444;26.152;2022-11-18T07:37:08;6.97;;;5.38;;
29960;SDS011;16816;44.444;26.152;2022-11-18T07:42:12;6.27;;;5.17;;
29960;SDS011;16816;44.444;26.152;2022-11-18T07:47:17;9.30;;;5.60;;
29960;SDS011;16816;44.444;26.152;2022-11-18T07:52:22;7.53;;;6.40;;
29960;SDS011;16816;44.444;26.152;2022-11-18T07:57:26;8.80;;;5.50;;
29960;SDS011;16816;44.444;26.152;2022-11-18T08:02:29;8.73;;;6.05;;
29960;SDS011;16816;44.444;26.152;2022-11-18T08:07:35;7.00;;;6.28;;
29960;SDS011;16816;44.444;26.152;2022-11-18T08:12:39;5.43;;;4.93;;
29960;SDS011;16816;44.444;26.152;2022-11-18T08:17:43;7.68;;;6.50;;
29960;SDS011;16816;44.444;26.152;2022-11-18T08:22:48;23.02;;;9.27;;
29960;SDS011;16816;44.444;26.152;2022-11-18T08:27:52;28.20;;;11.77;;
29960;SDS011;16816;44.444;26.152;2022-11-18T08:32:56;36.72;;;12.27;;
29960;SDS011;16816;44.444;26.152;2022-11-18T08:38:01;18.30;;;9.70;;
29960;SDS011;16816;44.444;26.152;2022-11-18T08:43:05;34.63;;;12.73;;
29960;SDS011;16816;44.444;26.152;2022-11-18T08:48:09;42.28;;;14.57;;
29960;SDS011;16816;44.444;26.152;2022-11-18T08:53:15;9.82;;;8.82;;
29960;SDS011;16816;44.444;26.152;2022-11-18T08:58:19;22.48;;;11.38;;
29960;SDS011;16816;44.444;26.152;2022-11-18T09:03:22;10.75;;;9.65;;
29960;SDS011;16816;44.444;26.152;2022-11-18T09:08:28;31.83;;;12.77;;
29960;SDS011;16816;44.444;26.152;2022-11-18T09:13:31;39.10;;;14.53;;
29960;SDS011;16816;44.444;26.152;2022-11-18T09:18:56;36.78;;;13.25;;
29960;SDS011;16816;44.444;26.152;2022-11-18T09:24:20;31.35;;;14.25;;
29960;SDS011;16816;44.444;26.152;2022-11-18T09:29:24;31.40;;;16.13;;
29960;SDS011;16816;44.444;26.152;2022-11-18T09:34:28;24.80;;;15.18;;
29960;SDS011;16816;44.444;26.152;2022-11-18T09:39:34;23.10;;;16.15;;
29960;SDS011;16816;44.444;26.152;2022-11-18T09:44:41;24.98;;;15.48;;
29960;SDS011;16816;44.444;26.152;2022-11-18T09:49:52;20.90;;;15.27;;
29960;SDS011;16816;44.444;26.152;2022-11-18T09:54:58;24.07;;;14.70;;
29960;SDS011;16816;44.444;26.152;2022-11-18T10:00:05;24.70;;;15.40;;
29960;SDS011;16816;44.444;26.152;2022-11-18T10:05:14;24.23;;;16.65;;
29960;SDS011;16816;44.444;26.152;2022-11-18T10:10:22;20.45;;;15.70;;
29960;SDS011;16816;44.444;26.152;2022-11-18T10:15:31;22.67;;;16.45;;
29960;SDS011;16816;44.444;26.152;2022-11-18T10:20:41;21.02;;;17.00;;
29960;SDS011;16816;44.444;26.152;2022-11-18T10:25:53;24.15;;;18.10;;
29960;SDS011;16816;44.444;26.152;2022-11-18T10:31:07;26.42;;;17.80;;
29960;SDS011;16816;44.444;26.152;2022-11-18T10:36:25;23.48;;;15.85;;
29960;SDS011;16816;44.444;26.152;2022-11-18T10:41:31;23.40;;;15.15;;
29960;SDS011;16816;44.444;26.152;2022-11-18T10:46:50;21.42;;;15.27;;
29960;SDS011;16816;44.444;26.152;2022-11-18T10:52:04;24.27;;;15.68;;
29960;SDS011;16816;44.444;26.152;2022-11-18T10:57:14;21.15;;;16.10;;
29960;SDS011;16816;44.444;26.152;2022-11-18T11:02:22;26.33;;;19.88;;
29960;SDS011;16816;44.444;26.152;2022-11-18T11:07:32;27.88;;;19.90;;
29960;SDS011;16816;44.444;26.152;2022-11-18T11:12:39;24.35;;;15.98;;
29960;SDS011;16816;44.444;26.152;2022-11-18T11:17:49;25.58;;;15.68;;
29960;SDS011;16816;44.444;26.152;2022-11-18T11:23:15;20.63;;;15.70;;
29960;SDS011;16816;44.444;26.152;2022-11-18T11:28:27;31.10;;;17.95;;
29960;SDS011;16816;44.444;26.152;2022-11-18T11:33:34;34.92;;;26.13;;
29960;SDS011;16816;44.444;26.152;2022-11-18T11:38:44;34.05;;;22.90;;
29960;SDS011;16816;44.444;26.152;2022-11-18T11:44:11;24.35;;;15.73;;
29960;SDS011;16816;44.444;26.152;2022-11-18T11:49:26;29.67;;;16.27;;
29960;SDS011;16816;44.444;26.152;2022-11-18T11:54:38;26.52;;;16.50;;
29960;SDS011;16816;44.444;26.152;2022-11-18T11:59:48;22.90;;;15.57;;
29960;SDS011;16816;44.444;26.152;2022-11-18T12:04:55;25.00;;;15.82;;
29960;SDS011;16816;44.444;26.152;2022-11-18T12:10:05;27.65;;;16.10;;
29960;SDS011;16816;44.444;26.152;2022-11-18T12:15:24;21.83;;;15.48;;
29960;SDS011;16816;44.444;26.152;2022-11-18T12:20:38;24.63;;;16.10;;
29960;SDS011;16816;44.444;26.152;2022-11-18T12:25:57;26.77;;;15.77;;
29960;SDS011;16816;44.444;26.152;2022-11-18T12:41:53;26.02;;;17.60;;
29960;SDS011;16816;44.444;26.152;2022-11-18T12:47:16;24.58;;;15.73;;
29960;SDS011;16816;44.444;26.152;2022-11-18T12:52:58;27.00;;;16.98;;
29960;SDS011;16816;44.444;26.152;2022-11-18T12:58:02;28.80;;;17.15;;
29960;SDS011;16816;44.444;26.152;2022-11-18T13:03:24;21.30;;;15.93;;
29960;SDS011;16816;44.444;26.152;2022-11-18T13:08:30;25.65;;;15.50;;
29960;SDS011;16816;44.444;26.152;2022-11-18T13:13:34;24.38;;;15.90;;
29960;SDS011;16816;44.444;26.152;2022-11-18T13:18:50;22.77;;;15.30;;
29960;SDS011;16816;44.444;26.152;2022-11-18T13:23:58;21.73;;;14.88;;
29960;SDS011;16816;44.444;26.152;2022-11-18T13:29:06;22.13;;;15.43;;
29960;SDS011;16816;44.444;26.152;2022-11-18T13:34:20;23.23;;;14.95;;
29960;SDS011;16816;44.444;26.152;2022-11-18T13:39:25;22.23;;;15.57;;
29960;SDS011;16816;44.444;26.152;2022-11-18T13:44:30;24.60;;;16.87;;
29960;SDS011;16816;44.444;26.152;2022-11-18T13:49:43;27.13;;;17.83;;
29960;SDS011;16816;44.444;26.152;2022-11-18T13:54:52;25.90;;;18.40;;
29960;SDS011;16816;44.444;26.152;2022-11-18T13:59:58;31.27;;;18.85;;
29960;SDS011;16816;44.444;26.152;2022-11-18T14:05:14;27.67;;;19.73;;
29960;SDS011;16816;44.444;26.152;2022-11-18T14:10:28;28.88;;;19.83;;
29960;SDS011;16816;44.444;26.152;2022-11-18T14:15:40;26.92;;;18.35;;
29960;SDS011;16816;44.444;26.152;2022-11-18T14:20:52;24.08;;;19.33;;
29960;SDS011;16816;44.444;26.152;2022-11-18T14:25:57;34.08;;;21.13;;
29960;SDS011;16816;44.444;26.152;2022-11-18T14:31:03;29.27;;;20.52;;
29960;SDS011;16816;44.444;26.152;2022-11-18T14:36:11;30.92;;;22.20;;
29960;SDS011;16816;44.444;26.152;2022-11-18T14:41:18;29.58;;;21.30;;
29960;SDS011;16816;44.444;26.152;2022-11-18T14:46:46;31.25;;;22.70;;
29960;SDS011;16816;44.444;26.152;2022-11-18T14:51:54;35.35;;;23.00;;
29960;SDS011;16816;44.444;26.152;2022-11-18T14:56:59;32.60;;;23.43;;
29960;SDS011;16816;44.444;26.152;2022-11-18T15:02:04;38.85;;;25.23;;
29960;SDS011;16816;44.444;26.152;2022-11-18T15:07:09;43.22;;;25.90;;
29960;SDS011;16816;44.444;26.152;2022-11-18T15:12:23;41.38;;;28.27;;
29960;SDS011;16816;44.444;26.152;2022-11-18T15:17:27;45.58;;;28.20;;
29960;SDS011;16816;44.444;26.152;2022-11-18T15:22:33;45.83;;;28.35;;
29960;SDS011;16816;44.444;26.152;2022-11-18T15:27:37;46.57;;;27.00;;
29960;SDS011;16816;44.444;26.152;2022-11-18T15:32:41;48.80;;;26.63;;
29960;SDS011;16816;44.444;26.152;2022-11-18T15:37:46;43.92;;;27.05;;
29960;SDS011;16816;44.444;26.152;2022-11-18T15:42:50;24.57;;;16.53;;
29960;SDS011;16816;44.444;26.152;2022-11-18T15:47:54;44.40;;;25.35;;
29960;SDS011;16816;44.444;26.152;2022-11-18T15:53:00;43.50;;;24.48;;
29960;SDS011;16816;44.444;26.152;2022-11-18T15:58:03;46.57;;;25.30;;
29960;SDS011;16816;44.444;26.152;2022-11-18T16:03:07;51.17;;;26.73;;
29960;SDS011;16816;44.444;26.152;2022-11-18T16:08:12;50.53;;;26.08;;
29960;SDS011;16816;44.444;26.152;2022-11-18T16:13:19;55.17;;;26.23;;
29960;SDS011;16816;44.444;26.152;2022-11-18T16:18:23;49.30;;;25.27;;
29960;SDS011;16816;44.444;26.152;2022-11-18T16:23:28;51.60;;;25.65;;
29960;SDS011;16816;44.444;26.152;2022-11-18T16:28:32;55.13;;;27.40;;
29960;SDS011;16816;44.444;26.152;2022-11-18T16:33:36;57.38;;;25.48;;
29960;SDS011;16816;44.444;26.152;2022-11-18T16:38:41;57.05;;;26.38;;
29960;SDS011;16816;44.444;26.152;2022-11-18T16:43:47;57.73;;;27.27;;
29960;SDS011;16816;44.444;26.152;2022-11-18T16:48:51;60.75;;;27.38;;
29960;SDS011;16816;44.444;26.152;2022-11-18T16:53:56;62.83;;;26.30;;
29960;SDS011;16816;44.444;26.152;2022-11-18T16:59:01;65.25;;;27.88;;
29960;SDS011;16816;44.444;26.152;2022-11-18T17:09:14;65.00;;;27.85;;
29960;SDS011;16816;44.444;26.152;2022-11-18T17:14:20;59.92;;;23.50;;
29960;SDS011;16816;44.444;26.152;2022-11-18T17:19:24;61.70;;;23.50;;
29960;SDS011;16816;44.444;26.152;2022-11-18T17:24:29;61.50;;;24.02;;
29960;SDS011;16816;44.444;26.152;2022-11-18T17:29:33;65.68;;;25.30;;
29960;SDS011;16816;44.444;26.152;2022-11-18T17:34:37;67.43;;;25.73;;
29960;SDS011;16816;44.444;26.152;2022-11-18T17:39:42;64.43;;;24.77;;
29960;SDS011;16816;44.444;26.152;2022-11-18T17:44:46;66.17;;;25.17;;
29960;SDS011;16816;44.444;26.152;2022-11-18T17:49:50;61.47;;;22.23;;
29960;SDS011;16816;44.444;26.152;2022-11-18T17:54:55;63.58;;;22.00;;
29960;SDS011;16816;44.444;26.152;2022-11-18T17:59:59;67.23;;;22.43;;
29960;SDS011;16816;44.444;26.152;2022-11-18T18:05:08;65.30;;;24.42;;
29960;SDS011;16816;44.444;26.152;2022-11-18T18:10:13;66.03;;;22.98;;
29960;SDS011;16816;44.444;26.152;2022-11-18T18:15:18;66.20;;;23.98;;
29960;SDS011;16816;44.444;26.152;2022-11-18T18:20:21;64.70;;;22.15;;
29960;SDS011;16816;44.444;26.152;2022-11-18T18:25:27;64.90;;;22.40;;
29960;SDS011;16816;44.444;26.152;2022-11-18T18:30:31;71.88;;;22.02;;
29960;SDS011;16816;44.444;26.152;2022-11-18T18:35:38;69.40;;;22.58;;
29960;SDS011;16816;44.444;26.152;2022-11-18T18:40:43;70.30;;;23.38;;
29960;SDS011;16816;44.444;26.152;2022-11-18T18:45:47;69.37;;;23.20;;
29960;SDS011;16816;44.444;26.152;2022-11-18T18:51:08;66.22;;;21.27;;
29960;SDS011;16816;44.444;26.152;2022-11-18T18:56:14;68.75;;;21.85;;
29960;SDS011;16816;44.444;26.152;2022-11-18T19:01:18;71.57;;;22.30;;
29960;SDS011;16816;44.444;26.152;2022-11-18T19:06:23;71.13;;;23.23;;
29960;SDS011;16816;44.444;26.152;2022-11-18T19:11:49;69.53;;;22.90;;
29960;SDS011;16816;44.444;26.152;2022-11-18T19:17:10;66.70;;;21.23;;
29960;SDS011;16816;44.444;26.152;2022-11-18T19:22:15;67.15;;;21.83;;
29960;SDS011;16816;44.444;26.152;2022-11-18T19:27:20;66.60;;;21.48;;
29960;SDS011;16816;44.444;26.152;2022-11-18T19:32:24;40.75;;;16.20;;
29960;SDS011;16816;44.444;26.152;2022-11-18T19:37:29;68.13;;;21.23;;
29960;SDS011;16816;44.444;26.152;2022-11-18T19:42:34;68.05;;;21.63;;
29960;SDS011;16816;44.444;26.152;2022-11-18T19:47:38;73.78;;;22.27;;
29960;SDS011;16816;44.444;26.152;2022-11-18T19:52:42;68.72;;;21.77;;
29960;SDS011;16816;44.444;26.152;2022-11-18T19:57:51;73.15;;;22.30;;
29960;SDS011;16816;44.444;26.152;2022-11-18T20:02:54;70.37;;;22.00;;
29960;SDS011;16816;44.444;26.152;2022-11-18T20:07:58;74.50;;;22.60;;
29960;SDS011;16816;44.444;26.152;2022-11-18T20:13:03;72.88;;;22.40;;
29960;SDS011;16816;44.444;26.152;2022-11-18T20:18:07;71.57;;;20.40;;
29960;SDS011;16816;44.444;26.152;2022-11-18T20:23:11;75.13;;;21.88;;
29960;SDS011;16816;44.444;26.152;2022-11-18T20:28:16;71.63;;;20.70;;
29960;SDS011;16816;44.444;26.152;2022-11-18T20:33:20;34.03;;;15.10;;
29960;SDS011;16816;44.444;26.152;2022-11-18T20:38:24;73.78;;;20.90;;
29960;SDS011;16816;44.444;26.152;2022-11-18T20:43:29;73.45;;;21.70;;
29960;SDS011;16816;44.444;26.152;2022-11-18T20:48:35;75.70;;;21.95;;
29960;SDS011;16816;44.444;26.152;2022-11-18T20:53:39;73.05;;;20.95;;
29960;SDS011;16816;44.444;26.152;2022-11-18T20:58:45;74.88;;;21.52;;
29960;SDS011;16816;44.444;26.152;2022-11-18T21:03:49;75.37;;;20.93;;
29960;SDS011;16816;44.444;26.152;2022-11-18T21:08:57;73.93;;;21.48;;
29960;SDS011;16816;44.444;26.152;2022-11-18T21:14:03;73.57;;;20.00;;
29960;SDS011;16816;44.444;26.152;2022-11-18T21:19:26;72.25;;;19.63;;
29960;SDS011;16816;44.444;26.152;2022-11-18T21:24:31;74.55;;;20.92;;
29960;SDS011;16816;44.444;26.152;2022-11-18T21:29:38;76.80;;;21.93;;
29960;SDS011;16816;44.444;26.152;2022-11-18T21:34:42;74.38;;;20.90;;
29960;SDS011;16816;44.444;26.152;2022-11-18T21:39:46;76.25;;;20.38;;
29960;SDS011;16816;44.444;26.152;2022-11-18T21:44:51;74.65;;;20.65;;
29960;SDS011;16816;44.444;26.152;2022-11-18T21:49:55;74.80;;;20.83;;
29960;SDS011;16816;44.444;26.152;2022-11-18T21:54:59;77.43;;;19.90;;
29960;SDS011;16816;44.444;26.152;2022-11-18T22:00:05;75.85;;;20.83;;
29960;SDS011;16816;44.444;26.152;2022-11-18T22:05:12;76.70;;;20.95;;
29960;SDS011;16816;44.444;26.152;2022-11-18T22:10:16;77.88;;;20.70;;
29960;SDS011;16816;44.444;26.152;2022-11-18T22:15:22;75.45;;;21.02;;
29960;SDS011;16816;44.444;26.152;2022-11-18T22:20:26;76.90;;;21.73;;
29960;SDS011;16816;44.444;26.152;2022-11-18T22:25:37;76.25;;;21.20;;
29960;SDS011;16816;44.444;26.152;2022-11-18T22:30:42;76.75;;;23.52;;
29960;SDS011;16816;44.444;26.152;2022-11-18T22:35:46;73.50;;;20.30;;
29960;SDS011;16816;44.444;26.152;2022-11-18T22:40:50;77.70;;;23.83;;
29960;SDS011;16816;44.444;26.152;2022-11-18T22:45:59;79.65;;;25.65;;
29960;SDS011;16816;44.444;26.152;2022-11-18T22:51:04;90.15;;;31.70;;
29960;SDS011;16816;44.444;26.152;2022-11-18T22:56:09;94.18;;;35.72;;
29960;SDS011;16816;44.444;26.152;2022-11-18T23:01:16;93.55;;;36.28;;
29960;SDS011;16816;44.444;26.152;2022-11-18T23:06:21;96.03;;;39.53;;
29960;SDS011;16816;44.444;26.152;2022-11-18T23:11:26;98.63;;;36.13;;
29960;SDS011;16816;44.444;26.152;2022-11-18T23:16:49;94.50;;;32.33;;
29960;SDS011;16816;44.444;26.152;2022-11-18T23:21:52;98.30;;;44.00;;
29960;SDS011;16816;44.444;26.152;2022-11-18T23:26:56;103.07;;;50.90;;
29960;SDS011;16816;44.444;26.152;2022-11-18T23:32:01;106.45;;;57.58;;
29960;SDS011;16816;44.444;26.152;2022-11-18T23:37:06;121.65;;;90.13;;
29960;SDS011;16816;44.444;26.152;2022-11-18T23:42:10;136.77;;;115.82;;
29960;SDS011;16816;44.444;26.152;2022-11-18T23:47:15;149.63;;;133.27;;
29960;SDS011;16816;44.444;26.152;2022-11-18T23:52:19;164.57;;;147.60;;
29960;SDS011;16816;44.444;26.152;2022-11-18T23:57:23;188.63;;;170.32;;
